sensor_id;sensor_type;location;lat;lon;timestamp;temperature;humidity
36652;DHT22;53334;51.976;20.144;2022-12-29T00:02:01;24.90;38.70
36652;DHT22;53334;51.976;20.144;2022-12-29T00:04:34;25.00;38.70
36652;DHT22;53334;51.976;20.144;2022-12-29T00:07:08;25.00;38.70
36652;DHT22;53334;51.976;20.144;2022-12-29T00:09:41;25.00;38.70
36652;DHT22;53334;51.976;20.144;2022-12-29T00:12:16;25.00;38.70
36652;DHT22;53334;51.976;20.144;2022-12-29T00:14:49;24.90;38.60
36652;DHT22;53334;51.976;20.144;2022-12-29T00:17:40;25.00;38.50
36652;DHT22;53334;51.976;20.144;2022-12-29T00:20:13;25.00;38.50
36652;DHT22;53334;51.976;20.144;2022-12-29T00:23:04;24.90;38.50
36652;DHT22;53334;51.976;20.144;2022-12-29T00:25:55;24.90;38.50
36652;DHT22;53334;51.976;20.144;2022-12-29T00:28:48;24.90;38.40
36652;DHT22;53334;51.976;20.144;2022-12-29T00:31:36;25.00;38.40
36652;DHT22;53334;51.976;20.144;2022-12-29T00:34:27;25.00;38.50
36652;DHT22;53334;51.976;20.144;2022-12-29T00:37:18;24.90;38.50
36652;DHT22;53334;51.976;20.144;2022-12-29T00:40:12;24.90;38.60
36652;DHT22;53334;51.976;20.144;2022-12-29T00:43:03;25.00;38.70
36652;DHT22;53334;51.976;20.144;2022-12-29T00:45:55;24.90;38.60
36652;DHT22;53334;51.976;20.144;2022-12-29T00:48:28;24.90;38.60
36652;DHT22;53334;51.976;20.144;2022-12-29T00:51:18;25.00;38.60
36652;DHT22;53334;51.976;20.144;2022-12-29T00:53:52;25.00;38.60
36652;DHT22;53334;51.976;20.144;2022-12-29T00:56:25;25.00;38.70
36652;DHT22;53334;51.976;20.144;2022-12-29T00:59:00;24.90;38.60
36652;DHT22;53334;51.976;20.144;2022-12-29T01:01:35;25.00;38.60
36652;DHT22;53334;51.976;20.144;2022-12-29T01:04:10;24.90;38.30
36652;DHT22;53334;51.976;20.144;2022-12-29T01:06:43;24.90;38.30
36652;DHT22;53334;51.976;20.144;2022-12-29T01:09:20;25.00;38.50
36652;DHT22;53334;51.976;20.144;2022-12-29T01:12:12;24.90;38.30
36652;DHT22;53334;51.976;20.144;2022-12-29T01:14:45;25.00;38.40
36652;DHT22;53334;51.976;20.144;2022-12-29T01:17:20;25.00;38.50
36652;DHT22;53334;51.976;20.144;2022-12-29T01:19:54;25.00;38.40
36652;DHT22;53334;51.976;20.144;2022-12-29T01:22:27;24.90;38.50
36652;DHT22;53334;51.976;20.144;2022-12-29T01:25:00;25.00;38.40
36652;DHT22;53334;51.976;20.144;2022-12-29T01:27:34;24.90;38.50
36652;DHT22;53334;51.976;20.144;2022-12-29T01:30:08;25.00;38.60
36652;DHT22;53334;51.976;20.144;2022-12-29T01:32:43;24.90;38.50
36652;DHT22;53334;51.976;20.144;2022-12-29T01:35:16;24.90;38.30
36652;DHT22;53334;51.976;20.144;2022-12-29T01:37:50;25.00;39.00
36652;DHT22;53334;51.976;20.144;2022-12-29T01:40:23;24.90;38.50
36652;DHT22;53334;51.976;20.144;2022-12-29T01:42:57;25.00;38.50
36652;DHT22;53334;51.976;20.144;2022-12-29T01:45:30;24.90;38.50
36652;DHT22;53334;51.976;20.144;2022-12-29T01:48:05;25.00;38.40
36652;DHT22;53334;51.976;20.144;2022-12-29T01:50:41;25.00;38.40
36652;DHT22;53334;51.976;20.144;2022-12-29T01:53:18;25.00;38.30
36652;DHT22;53334;51.976;20.144;2022-12-29T01:55:55;24.90;38.40
36652;DHT22;53334;51.976;20.144;2022-12-29T01:58:34;24.90;38.40
36652;DHT22;53334;51.976;20.144;2022-12-29T02:01:10;24.90;38.40
36652;DHT22;53334;51.976;20.144;2022-12-29T02:03:45;25.00;38.40
36652;DHT22;53334;51.976;20.144;2022-12-29T02:06:21;24.90;38.10
36652;DHT22;53334;51.976;20.144;2022-12-29T02:08:56;25.00;38.40
36652;DHT22;53334;51.976;20.144;2022-12-29T02:11:30;24.90;38.20
36652;DHT22;53334;51.976;20.144;2022-12-29T02:14:08;25.00;38.30
36652;DHT22;53334;51.976;20.144;2022-12-29T02:16:59;24.90;38.50
36652;DHT22;53334;51.976;20.144;2022-12-29T02:19:58;25.00;39.20
36652;DHT22;53334;51.976;20.144;2022-12-29T02:22:45;25.00;39.20
36652;DHT22;53334;51.976;20.144;2022-12-29T02:25:52;25.00;38.60
36652;DHT22;53334;51.976;20.144;2022-12-29T02:28:58;25.00;39.30
36652;DHT22;53334;51.976;20.144;2022-12-29T02:31:43;25.00;39.40
36652;DHT22;53334;51.976;20.144;2022-12-29T02:34:23;24.90;38.60
36652;DHT22;53334;51.976;20.144;2022-12-29T02:37:03;25.00;38.50
36652;DHT22;53334;51.976;20.144;2022-12-29T02:39:41;24.90;38.30
36652;DHT22;53334;51.976;20.144;2022-12-29T02:42:23;24.90;38.30
36652;DHT22;53334;51.976;20.144;2022-12-29T02:45:03;24.90;38.20
36652;DHT22;53334;51.976;20.144;2022-12-29T02:47:44;25.00;38.60
36652;DHT22;53334;51.976;20.144;2022-12-29T02:50:23;24.90;38.30
36652;DHT22;53334;51.976;20.144;2022-12-29T02:53:02;24.90;38.20
36652;DHT22;53334;51.976;20.144;2022-12-29T02:55:39;24.90;38.30
36652;DHT22;53334;51.976;20.144;2022-12-29T02:58:18;24.90;38.40
36652;DHT22;53334;51.976;20.144;2022-12-29T03:01:09;24.90;38.60
36652;DHT22;53334;51.976;20.144;2022-12-29T03:04:03;25.00;38.70
36652;DHT22;53334;51.976;20.144;2022-12-29T03:06:49;24.90;38.90
36652;DHT22;53334;51.976;20.144;2022-12-29T03:09:34;25.00;38.70
36652;DHT22;53334;51.976;20.144;2022-12-29T03:12:26;24.90;38.60
36652;DHT22;53334;51.976;20.144;2022-12-29T03:15:21;24.90;39.20
36652;DHT22;53334;51.976;20.144;2022-12-29T03:18:18;24.90;38.30
36652;DHT22;53334;51.976;20.144;2022-12-29T03:20:59;24.90;38.40
36652;DHT22;53334;51.976;20.144;2022-12-29T03:23:34;24.90;38.20
36652;DHT22;53334;51.976;20.144;2022-12-29T03:26:11;24.90;38.20
36652;DHT22;53334;51.976;20.144;2022-12-29T03:28:48;24.90;38.20
36652;DHT22;53334;51.976;20.144;2022-12-29T03:31:28;24.90;38.80
36652;DHT22;53334;51.976;20.144;2022-12-29T03:34:02;24.90;38.20
36652;DHT22;53334;51.976;20.144;2022-12-29T03:36:44;25.00;38.10
36652;DHT22;53334;51.976;20.144;2022-12-29T03:39:22;24.90;38.50
36652;DHT22;53334;51.976;20.144;2022-12-29T03:42:00;25.00;38.30
36652;DHT22;53334;51.976;20.144;2022-12-29T03:44:37;24.90;38.20
36652;DHT22;53334;51.976;20.144;2022-12-29T03:47:14;24.90;38.20
36652;DHT22;53334;51.976;20.144;2022-12-29T03:49:50;24.90;38.80
36652;DHT22;53334;51.976;20.144;2022-12-29T03:52:25;24.90;38.10
36652;DHT22;53334;51.976;20.144;2022-12-29T03:54:59;24.90;38.00
36652;DHT22;53334;51.976;20.144;2022-12-29T03:57:32;24.90;38.10
36652;DHT22;53334;51.976;20.144;2022-12-29T04:00:11;24.90;38.30
36652;DHT22;53334;51.976;20.144;2022-12-29T04:02:52;24.90;38.40
36652;DHT22;53334;51.976;20.144;2022-12-29T04:05:28;24.90;38.20
36652;DHT22;53334;51.976;20.144;2022-12-29T04:08:02;24.90;38.20
36652;DHT22;53334;51.976;20.144;2022-12-29T04:10:36;24.90;38.10
36652;DHT22;53334;51.976;20.144;2022-12-29T04:13:10;24.90;38.30
36652;DHT22;53334;51.976;20.144;2022-12-29T04:15:43;24.90;38.00
36652;DHT22;53334;51.976;20.144;2022-12-29T04:18:17;24.90;38.10
36652;DHT22;53334;51.976;20.144;2022-12-29T04:20:50;24.90;38.10
36652;DHT22;53334;51.976;20.144;2022-12-29T04:23:38;24.90;38.20
36652;DHT22;53334;51.976;20.144;2022-12-29T04:26:13;24.90;38.10
36652;DHT22;53334;51.976;20.144;2022-12-29T04:28:57;24.90;38.20
36652;DHT22;53334;51.976;20.144;2022-12-29T04:31:39;24.90;38.30
36652;DHT22;53334;51.976;20.144;2022-12-29T04:34:13;24.90;38.20
36652;DHT22;53334;51.976;20.144;2022-12-29T04:36:47;24.90;39.60
36652;DHT22;53334;51.976;20.144;2022-12-29T04:39:23;24.90;38.50
36652;DHT22;53334;51.976;20.144;2022-12-29T04:41:57;24.90;38.20
36652;DHT22;53334;51.976;20.144;2022-12-29T04:44:30;24.90;38.10
36652;DHT22;53334;51.976;20.144;2022-12-29T04:47:15;24.90;38.30
36652;DHT22;53334;51.976;20.144;2022-12-29T04:50:09;24.90;38.00
36652;DHT22;53334;51.976;20.144;2022-12-29T04:52:57;24.90;38.00
36652;DHT22;53334;51.976;20.144;2022-12-29T04:55:32;24.90;38.00
36652;DHT22;53334;51.976;20.144;2022-12-29T04:58:05;24.90;38.00
36652;DHT22;53334;51.976;20.144;2022-12-29T05:00:39;24.90;37.90
36652;DHT22;53334;51.976;20.144;2022-12-29T05:03:12;24.90;38.00
36652;DHT22;53334;51.976;20.144;2022-12-29T05:05:47;24.90;38.00
36652;DHT22;53334;51.976;20.144;2022-12-29T05:08:21;24.90;38.10
36652;DHT22;53334;51.976;20.144;2022-12-29T05:11:02;24.90;38.10
36652;DHT22;53334;51.976;20.144;2022-12-29T05:13:36;24.90;37.90
36652;DHT22;53334;51.976;20.144;2022-12-29T05:16:09;24.90;37.90
36652;DHT22;53334;51.976;20.144;2022-12-29T05:18:43;24.90;37.90
36652;DHT22;53334;51.976;20.144;2022-12-29T05:21:16;24.90;38.00
36652;DHT22;53334;51.976;20.144;2022-12-29T05:23:49;24.90;38.10
36652;DHT22;53334;51.976;20.144;2022-12-29T05:26:24;24.90;38.00
36652;DHT22;53334;51.976;20.144;2022-12-29T05:29:08;24.90;39.20
36652;DHT22;53334;51.976;20.144;2022-12-29T05:31:42;24.90;37.90
36652;DHT22;53334;51.976;20.144;2022-12-29T05:34:16;24.90;38.10
36652;DHT22;53334;51.976;20.144;2022-12-29T05:36:50;24.90;37.90
36652;DHT22;53334;51.976;20.144;2022-12-29T05:39:23;24.90;37.80
36652;DHT22;53334;51.976;20.144;2022-12-29T05:42:02;24.90;38.00
36652;DHT22;53334;51.976;20.144;2022-12-29T05:45:11;24.90;37.90
36652;DHT22;53334;51.976;20.144;2022-12-29T05:48:02;24.90;37.90
36652;DHT22;53334;51.976;20.144;2022-12-29T05:50:59;24.90;37.90
36652;DHT22;53334;51.976;20.144;2022-12-29T05:53:41;24.90;37.80
36652;DHT22;53334;51.976;20.144;2022-12-29T05:56:15;24.90;37.70
36652;DHT22;53334;51.976;20.144;2022-12-29T05:58:52;24.90;37.90
36652;DHT22;53334;51.976;20.144;2022-12-29T06:01:26;24.90;37.90
36652;DHT22;53334;51.976;20.144;2022-12-29T06:04:01;24.90;37.70
36652;DHT22;53334;51.976;20.144;2022-12-29T06:06:36;24.90;37.80
36652;DHT22;53334;51.976;20.144;2022-12-29T06:09:14;24.90;37.70
36652;DHT22;53334;51.976;20.144;2022-12-29T06:11:47;24.90;37.70
36652;DHT22;53334;51.976;20.144;2022-12-29T06:14:22;24.90;37.70
36652;DHT22;53334;51.976;20.144;2022-12-29T06:16:55;24.90;37.80
36652;DHT22;53334;51.976;20.144;2022-12-29T06:19:28;24.90;37.90
36652;DHT22;53334;51.976;20.144;2022-12-29T06:22:02;24.90;37.90
36652;DHT22;53334;51.976;20.144;2022-12-29T06:24:38;24.90;38.00
36652;DHT22;53334;51.976;20.144;2022-12-29T06:27:11;24.90;38.00
36652;DHT22;53334;51.976;20.144;2022-12-29T06:29:47;24.90;37.80
36652;DHT22;53334;51.976;20.144;2022-12-29T06:32:21;24.90;37.80
36652;DHT22;53334;51.976;20.144;2022-12-29T06:34:57;24.90;37.80
36652;DHT22;53334;51.976;20.144;2022-12-29T06:37:31;24.90;37.90
36652;DHT22;53334;51.976;20.144;2022-12-29T06:40:05;24.90;37.80
36652;DHT22;53334;51.976;20.144;2022-12-29T06:42:59;24.90;37.80
36652;DHT22;53334;51.976;20.144;2022-12-29T06:45:56;24.90;39.30
36652;DHT22;53334;51.976;20.144;2022-12-29T06:48:30;24.90;37.80
36652;DHT22;53334;51.976;20.144;2022-12-29T06:51:03;24.90;37.80
36652;DHT22;53334;51.976;20.144;2022-12-29T06:53:37;24.90;37.70
36652;DHT22;53334;51.976;20.144;2022-12-29T06:56:10;24.90;37.70
36652;DHT22;53334;51.976;20.144;2022-12-29T06:58:43;24.90;37.70
36652;DHT22;53334;51.976;20.144;2022-12-29T07:01:21;24.90;37.70
36652;DHT22;53334;51.976;20.144;2022-12-29T07:03:54;24.90;37.80
36652;DHT22;53334;51.976;20.144;2022-12-29T07:06:28;24.90;37.90
36652;DHT22;53334;51.976;20.144;2022-12-29T07:09:01;24.90;37.80
36652;DHT22;53334;51.976;20.144;2022-12-29T07:11:34;24.90;37.90
36652;DHT22;53334;51.976;20.144;2022-12-29T07:14:08;24.90;38.00
36652;DHT22;53334;51.976;20.144;2022-12-29T07:16:42;24.90;37.90
36652;DHT22;53334;51.976;20.144;2022-12-29T07:19:16;24.90;37.80
36652;DHT22;53334;51.976;20.144;2022-12-29T07:21:49;24.90;37.90
36652;DHT22;53334;51.976;20.144;2022-12-29T07:24:23;24.90;37.90
36652;DHT22;53334;51.976;20.144;2022-12-29T07:26:57;24.90;38.00
36652;DHT22;53334;51.976;20.144;2022-12-29T07:29:30;24.90;37.70
36652;DHT22;53334;51.976;20.144;2022-12-29T07:32:05;24.90;37.90
36652;DHT22;53334;51.976;20.144;2022-12-29T07:34:39;24.90;37.80
36652;DHT22;53334;51.976;20.144;2022-12-29T07:37:12;24.90;37.90
36652;DHT22;53334;51.976;20.144;2022-12-29T07:39:46;24.90;37.90
36652;DHT22;53334;51.976;20.144;2022-12-29T07:42:19;24.90;37.70
36652;DHT22;53334;51.976;20.144;2022-12-29T07:44:56;24.90;37.80
36652;DHT22;53334;51.976;20.144;2022-12-29T07:47:32;24.90;37.90
36652;DHT22;53334;51.976;20.144;2022-12-29T07:50:06;24.90;37.80
36652;DHT22;53334;51.976;20.144;2022-12-29T07:52:39;24.90;37.80
36652;DHT22;53334;51.976;20.144;2022-12-29T07:55:13;24.90;37.90
36652;DHT22;53334;51.976;20.144;2022-12-29T07:57:46;24.90;37.90
36652;DHT22;53334;51.976;20.144;2022-12-29T08:00:20;24.90;38.00
36652;DHT22;53334;51.976;20.144;2022-12-29T08:02:55;24.90;37.60
36652;DHT22;53334;51.976;20.144;2022-12-29T08:05:28;24.90;37.80
36652;DHT22;53334;51.976;20.144;2022-12-29T08:08:03;24.90;37.80
36652;DHT22;53334;51.976;20.144;2022-12-29T08:10:36;24.90;37.70
36652;DHT22;53334;51.976;20.144;2022-12-29T08:13:09;24.90;37.80
36652;DHT22;53334;51.976;20.144;2022-12-29T08:15:44;24.90;37.90
36652;DHT22;53334;51.976;20.144;2022-12-29T08:18:18;24.90;37.50
36652;DHT22;53334;51.976;20.144;2022-12-29T08:20:52;24.90;37.60
36652;DHT22;53334;51.976;20.144;2022-12-29T08:23:27;24.90;37.80
36652;DHT22;53334;51.976;20.144;2022-12-29T08:26:01;24.90;37.80
36652;DHT22;53334;51.976;20.144;2022-12-29T08:28:35;24.90;37.80
36652;DHT22;53334;51.976;20.144;2022-12-29T08:31:08;24.90;37.70
36652;DHT22;53334;51.976;20.144;2022-12-29T08:33:43;24.90;37.60
36652;DHT22;53334;51.976;20.144;2022-12-29T08:36:17;24.90;37.60
36652;DHT22;53334;51.976;20.144;2022-12-29T08:38:50;24.90;37.70
36652;DHT22;53334;51.976;20.144;2022-12-29T08:41:23;24.90;37.70
36652;DHT22;53334;51.976;20.144;2022-12-29T08:43:57;24.90;37.80
36652;DHT22;53334;51.976;20.144;2022-12-29T08:46:30;24.90;37.60
36652;DHT22;53334;51.976;20.144;2022-12-29T08:49:05;24.90;37.70
36652;DHT22;53334;51.976;20.144;2022-12-29T08:51:38;24.90;37.60
36652;DHT22;53334;51.976;20.144;2022-12-29T08:54:12;24.90;37.60
36652;DHT22;53334;51.976;20.144;2022-12-29T08:56:45;24.90;37.70
36652;DHT22;53334;51.976;20.144;2022-12-29T08:59:20;24.90;37.50
36652;DHT22;53334;51.976;20.144;2022-12-29T09:01:55;24.90;37.50
36652;DHT22;53334;51.976;20.144;2022-12-29T09:04:29;24.90;37.50
36652;DHT22;53334;51.976;20.144;2022-12-29T09:07:03;24.90;37.60
36652;DHT22;53334;51.976;20.144;2022-12-29T09:09:37;24.90;37.40
36652;DHT22;53334;51.976;20.144;2022-12-29T09:12:10;24.90;38.60
36652;DHT22;53334;51.976;20.144;2022-12-29T09:14:46;24.90;37.60
36652;DHT22;53334;51.976;20.144;2022-12-29T09:17:19;24.90;37.60
36652;DHT22;53334;51.976;20.144;2022-12-29T09:20:13;24.90;37.60
36652;DHT22;53334;51.976;20.144;2022-12-29T09:22:47;24.90;37.50
36652;DHT22;53334;51.976;20.144;2022-12-29T09:25:21;24.90;37.40
36652;DHT22;53334;51.976;20.144;2022-12-29T09:27:56;24.90;37.50
36652;DHT22;53334;51.976;20.144;2022-12-29T09:30:29;24.90;37.50
36652;DHT22;53334;51.976;20.144;2022-12-29T09:33:03;24.90;37.50
36652;DHT22;53334;51.976;20.144;2022-12-29T09:35:41;24.90;37.50
36652;DHT22;53334;51.976;20.144;2022-12-29T09:38:15;24.90;37.70
36652;DHT22;53334;51.976;20.144;2022-12-29T09:40:51;24.90;37.50
36652;DHT22;53334;51.976;20.144;2022-12-29T09:43:33;24.90;37.40
36652;DHT22;53334;51.976;20.144;2022-12-29T09:46:18;24.90;37.50
36652;DHT22;53334;51.976;20.144;2022-12-29T09:49:04;24.90;37.80
36652;DHT22;53334;51.976;20.144;2022-12-29T09:51:43;24.90;37.60
36652;DHT22;53334;51.976;20.144;2022-12-29T09:54:33;24.90;37.40
36652;DHT22;53334;51.976;20.144;2022-12-29T09:57:18;24.90;38.00
36652;DHT22;53334;51.976;20.144;2022-12-29T09:59:58;24.90;37.40
36652;DHT22;53334;51.976;20.144;2022-12-29T10:02:46;24.90;37.30
36652;DHT22;53334;51.976;20.144;2022-12-29T10:05:35;24.90;37.40
36652;DHT22;53334;51.976;20.144;2022-12-29T10:08:22;24.90;38.10
36652;DHT22;53334;51.976;20.144;2022-12-29T10:11:07;24.90;37.80
36652;DHT22;53334;51.976;20.144;2022-12-29T10:14:07;24.90;37.60
36652;DHT22;53334;51.976;20.144;2022-12-29T10:16:53;24.90;38.10
36652;DHT22;53334;51.976;20.144;2022-12-29T10:19:57;24.90;37.60
36652;DHT22;53334;51.976;20.144;2022-12-29T10:22:42;24.90;38.20
36652;DHT22;53334;51.976;20.144;2022-12-29T10:25:22;24.90;37.90
36652;DHT22;53334;51.976;20.144;2022-12-29T10:28:03;24.90;37.50
36652;DHT22;53334;51.976;20.144;2022-12-29T10:30:38;24.90;38.60
36652;DHT22;53334;51.976;20.144;2022-12-29T10:33:15;24.90;37.50
36652;DHT22;53334;51.976;20.144;2022-12-29T10:35:51;24.80;37.40
36652;DHT22;53334;51.976;20.144;2022-12-29T10:38:27;24.90;37.40
36652;DHT22;53334;51.976;20.144;2022-12-29T10:41:11;24.90;37.40
36652;DHT22;53334;51.976;20.144;2022-12-29T10:43:48;24.90;37.80
36652;DHT22;53334;51.976;20.144;2022-12-29T10:46:27;24.90;37.30
36652;DHT22;53334;51.976;20.144;2022-12-29T10:49:01;24.90;37.40
36652;DHT22;53334;51.976;20.144;2022-12-29T10:51:38;24.90;37.40
36652;DHT22;53334;51.976;20.144;2022-12-29T10:54:15;24.90;37.40
36652;DHT22;53334;51.976;20.144;2022-12-29T10:56:56;24.90;37.30
36652;DHT22;53334;51.976;20.144;2022-12-29T10:59:35;24.90;37.50
36652;DHT22;53334;51.976;20.144;2022-12-29T11:02:29;24.90;37.60
36652;DHT22;53334;51.976;20.144;2022-12-29T11:05:12;24.90;38.20
36652;DHT22;53334;51.976;20.144;2022-12-29T11:07:56;24.90;37.60
36652;DHT22;53334;51.976;20.144;2022-12-29T11:10:36;24.90;37.50
36652;DHT22;53334;51.976;20.144;2022-12-29T11:13:15;24.90;37.70
36652;DHT22;53334;51.976;20.144;2022-12-29T11:15:50;24.90;37.40
36652;DHT22;53334;51.976;20.144;2022-12-29T11:18:25;24.90;37.40
36652;DHT22;53334;51.976;20.144;2022-12-29T11:21:00;24.80;37.30
36652;DHT22;53334;51.976;20.144;2022-12-29T11:23:36;24.90;37.30
36652;DHT22;53334;51.976;20.144;2022-12-29T11:26:19;24.90;37.40
36652;DHT22;53334;51.976;20.144;2022-12-29T11:29:20;24.90;37.60
36652;DHT22;53334;51.976;20.144;2022-12-29T11:31:55;24.90;38.20
36652;DHT22;53334;51.976;20.144;2022-12-29T11:34:32;24.90;37.40
36652;DHT22;53334;51.976;20.144;2022-12-29T11:37:11;24.90;37.40
36652;DHT22;53334;51.976;20.144;2022-12-29T11:39:50;24.90;37.50
36652;DHT22;53334;51.976;20.144;2022-12-29T11:42:33;24.90;37.60
36652;DHT22;53334;51.976;20.144;2022-12-29T11:45:15;24.90;38.00
36652;DHT22;53334;51.976;20.144;2022-12-29T11:47:51;24.90;37.90
36652;DHT22;53334;51.976;20.144;2022-12-29T11:50:27;24.90;37.50
36652;DHT22;53334;51.976;20.144;2022-12-29T11:53:05;24.90;37.50
36652;DHT22;53334;51.976;20.144;2022-12-29T11:55:39;24.90;37.50
36652;DHT22;53334;51.976;20.144;2022-12-29T11:58:15;24.90;37.50
36652;DHT22;53334;51.976;20.144;2022-12-29T12:00:51;24.90;37.50
36652;DHT22;53334;51.976;20.144;2022-12-29T12:03:26;24.90;37.50
36652;DHT22;53334;51.976;20.144;2022-12-29T12:06:02;24.90;37.40
36652;DHT22;53334;51.976;20.144;2022-12-29T12:08:38;24.90;37.40
36652;DHT22;53334;51.976;20.144;2022-12-29T12:11:15;24.90;37.40
36652;DHT22;53334;51.976;20.144;2022-12-29T12:13:57;24.90;37.30
36652;DHT22;53334;51.976;20.144;2022-12-29T12:16:46;24.90;37.50
36652;DHT22;53334;51.976;20.144;2022-12-29T12:19:31;24.90;37.60
36652;DHT22;53334;51.976;20.144;2022-12-29T12:22:16;24.90;37.70
36652;DHT22;53334;51.976;20.144;2022-12-29T12:24:55;24.90;37.90
36652;DHT22;53334;51.976;20.144;2022-12-29T12:27:36;24.90;37.50
36652;DHT22;53334;51.976;20.144;2022-12-29T12:30:15;24.90;37.60
36652;DHT22;53334;51.976;20.144;2022-12-29T12:32:55;24.90;37.60
36652;DHT22;53334;51.976;20.144;2022-12-29T12:35:37;24.90;37.70
36652;DHT22;53334;51.976;20.144;2022-12-29T12:38:23;24.90;37.70
36652;DHT22;53334;51.976;20.144;2022-12-29T12:41:06;24.90;38.00
36652;DHT22;53334;51.976;20.144;2022-12-29T12:43:50;24.90;37.60
36652;DHT22;53334;51.976;20.144;2022-12-29T12:46:55;24.90;37.50
36652;DHT22;53334;51.976;20.144;2022-12-29T12:50:02;24.90;38.10
36652;DHT22;53334;51.976;20.144;2022-12-29T12:52:54;24.90;38.00
36652;DHT22;53334;51.976;20.144;2022-12-29T12:55:45;24.90;37.70
36652;DHT22;53334;51.976;20.144;2022-12-29T12:58:27;24.90;37.70
36652;DHT22;53334;51.976;20.144;2022-12-29T13:01:15;24.90;37.60
36652;DHT22;53334;51.976;20.144;2022-12-29T13:04:08;24.90;37.70
36652;DHT22;53334;51.976;20.144;2022-12-29T13:06:53;24.90;38.00
36652;DHT22;53334;51.976;20.144;2022-12-29T13:09:31;24.90;37.80
36652;DHT22;53334;51.976;20.144;2022-12-29T13:12:19;24.80;38.40
36652;DHT22;53334;51.976;20.144;2022-12-29T13:15:04;24.90;38.00
36652;DHT22;53334;51.976;20.144;2022-12-29T13:17:43;24.90;37.70
36652;DHT22;53334;51.976;20.144;2022-12-29T13:20:26;24.90;37.60
36652;DHT22;53334;51.976;20.144;2022-12-29T13:23:08;24.80;37.80
36652;DHT22;53334;51.976;20.144;2022-12-29T13:25:50;24.90;37.70
36652;DHT22;53334;51.976;20.144;2022-12-29T13:28:28;24.90;37.70
36652;DHT22;53334;51.976;20.144;2022-12-29T13:31:09;24.90;38.10
36652;DHT22;53334;51.976;20.144;2022-12-29T13:33:51;24.90;37.70
36652;DHT22;53334;51.976;20.144;2022-12-29T13:36:29;24.90;37.80
36652;DHT22;53334;51.976;20.144;2022-12-29T13:39:13;24.90;37.50
36652;DHT22;53334;51.976;20.144;2022-12-29T13:41:54;24.90;37.70
36652;DHT22;53334;51.976;20.144;2022-12-29T13:44:30;24.90;38.10
36652;DHT22;53334;51.976;20.144;2022-12-29T13:47:19;24.90;37.60
36652;DHT22;53334;51.976;20.144;2022-12-29T13:49:57;24.90;38.00
36652;DHT22;53334;51.976;20.144;2022-12-29T13:52:37;24.90;37.60
36652;DHT22;53334;51.976;20.144;2022-12-29T13:55:24;24.90;37.70
36652;DHT22;53334;51.976;20.144;2022-12-29T13:58:03;24.90;38.10
36652;DHT22;53334;51.976;20.144;2022-12-29T14:00:44;24.90;37.70
36652;DHT22;53334;51.976;20.144;2022-12-29T14:03:46;24.90;37.70
36652;DHT22;53334;51.976;20.144;2022-12-29T14:06:23;24.90;38.40
36652;DHT22;53334;51.976;20.144;2022-12-29T14:08:58;24.90;37.60
36652;DHT22;53334;51.976;20.144;2022-12-29T14:11:36;24.90;37.70
36652;DHT22;53334;51.976;20.144;2022-12-29T14:14:12;24.90;37.70
36652;DHT22;53334;51.976;20.144;2022-12-29T14:16:46;24.90;37.70
36652;DHT22;53334;51.976;20.144;2022-12-29T14:19:23;24.90;37.70
36652;DHT22;53334;51.976;20.144;2022-12-29T14:21:59;24.90;37.70
36652;DHT22;53334;51.976;20.144;2022-12-29T14:24:42;24.90;37.60
36652;DHT22;53334;51.976;20.144;2022-12-29T14:27:51;24.90;37.80
36652;DHT22;53334;51.976;20.144;2022-12-29T14:30:49;24.90;38.10
36652;DHT22;53334;51.976;20.144;2022-12-29T14:33:24;24.90;38.00
36652;DHT22;53334;51.976;20.144;2022-12-29T14:36:19;24.90;37.60
36652;DHT22;53334;51.976;20.144;2022-12-29T14:38:53;24.90;38.10
36652;DHT22;53334;51.976;20.144;2022-12-29T14:41:29;24.90;37.70
36652;DHT22;53334;51.976;20.144;2022-12-29T14:44:17;24.90;37.70
36652;DHT22;53334;51.976;20.144;2022-12-29T14:46:59;24.90;38.20
36652;DHT22;53334;51.976;20.144;2022-12-29T14:49:40;24.90;38.00
36652;DHT22;53334;51.976;20.144;2022-12-29T14:52:18;24.90;37.80
36652;DHT22;53334;51.976;20.144;2022-12-29T14:54:54;24.90;37.70
36652;DHT22;53334;51.976;20.144;2022-12-29T14:57:34;24.90;37.70
36652;DHT22;53334;51.976;20.144;2022-12-29T15:00:18;24.90;37.70
36652;DHT22;53334;51.976;20.144;2022-12-29T15:03:03;24.90;37.80
36652;DHT22;53334;51.976;20.144;2022-12-29T15:05:41;24.90;38.00
36652;DHT22;53334;51.976;20.144;2022-12-29T15:08:20;24.90;37.70
36652;DHT22;53334;51.976;20.144;2022-12-29T15:10:58;24.90;37.60
36652;DHT22;53334;51.976;20.144;2022-12-29T15:13:34;24.90;37.60
36652;DHT22;53334;51.976;20.144;2022-12-29T15:16:22;24.90;37.70
36652;DHT22;53334;51.976;20.144;2022-12-29T15:18:55;24.90;38.00
36652;DHT22;53334;51.976;20.144;2022-12-29T15:21:31;24.90;37.70
36652;DHT22;53334;51.976;20.144;2022-12-29T15:24:05;24.90;37.70
36652;DHT22;53334;51.976;20.144;2022-12-29T15:26:39;24.90;37.70
36652;DHT22;53334;51.976;20.144;2022-12-29T15:29:28;24.90;38.60
36652;DHT22;53334;51.976;20.144;2022-12-29T15:32:16;24.90;38.60
36652;DHT22;53334;51.976;20.144;2022-12-29T15:34:51;24.90;38.20
36652;DHT22;53334;51.976;20.144;2022-12-29T15:37:27;24.90;37.90
36652;DHT22;53334;51.976;20.144;2022-12-29T15:40:02;24.90;38.10
36652;DHT22;53334;51.976;20.144;2022-12-29T15:42:51;24.90;37.90
36652;DHT22;53334;51.976;20.144;2022-12-29T15:45:30;24.90;38.30
36652;DHT22;53334;51.976;20.144;2022-12-29T15:48:10;24.90;37.90
36652;DHT22;53334;51.976;20.144;2022-12-29T15:50:47;24.90;37.90
36652;DHT22;53334;51.976;20.144;2022-12-29T15:53:21;24.90;37.80
36652;DHT22;53334;51.976;20.144;2022-12-29T15:56:02;24.90;38.40
36652;DHT22;53334;51.976;20.144;2022-12-29T15:58:40;24.90;37.80
36652;DHT22;53334;51.976;20.144;2022-12-29T16:01:18;24.90;37.70
36652;DHT22;53334;51.976;20.144;2022-12-29T16:03:53;24.90;37.80
36652;DHT22;53334;51.976;20.144;2022-12-29T16:06:32;24.90;37.80
36652;DHT22;53334;51.976;20.144;2022-12-29T16:09:11;24.90;37.90
36652;DHT22;53334;51.976;20.144;2022-12-29T16:11:51;24.90;37.80
36652;DHT22;53334;51.976;20.144;2022-12-29T16:14:29;24.90;37.80
36652;DHT22;53334;51.976;20.144;2022-12-29T16:17:04;24.90;37.80
36652;DHT22;53334;51.976;20.144;2022-12-29T16:19:41;24.90;37.90
36652;DHT22;53334;51.976;20.144;2022-12-29T16:22:25;24.90;37.80
36652;DHT22;53334;51.976;20.144;2022-12-29T16:25:03;25.00;37.90
36652;DHT22;53334;51.976;20.144;2022-12-29T16:27:38;25.00;38.00
36652;DHT22;53334;51.976;20.144;2022-12-29T16:30:19;24.90;37.80